Time;durP1;ratioP1;P1;durP2;ratioP2;P2;SDS_P1;SDS_P2;PMS_P1;PMS_P2;Temp;Humidity;BMP_temperature;BMP_pressure;BME280_temperature;BME280_humidity;BME280_pressure;Samples;Min_cycle;Max_cycle;Signal;HPM_P1;HPM_P2
2022/07/18 00:00:16;;;;;;;1.48;1.23;;;16.70;99.90;;;;;;5022972;28;20037;-87
2022/07/18 00:02:42;;;;;;;2.35;1.00;;;16.70;99.90;;;;;;5023091;28;20044;-88
2022/07/18 00:05:07;;;;;;;1.17;1.08;;;16.70;99.90;;;;;;5031104;28;20745;-88
2022/07/18 00:07:33;;;;;;;1.80;1.05;;;16.70;99.90;;;;;;5024804;28;20026;-88
2022/07/18 00:09:59;;;;;;;2.13;1.33;;;16.70;99.90;;;;;;5031834;28;20072;-88
2022/07/18 00:12:24;;;;;;;1.15;1.02;;;16.70;99.90;;;;;;5019121;28;20107;-88
2022/07/18 00:14:50;;;;;;;2.08;1.23;;;16.70;99.90;;;;;;5012419;28;20443;-88
2022/07/18 00:17:15;;;;;;;1.17;1.05;;;16.70;99.90;;;;;;5030523;28;20549;-89
2022/07/18 00:19:41;;;;;;;1.65;1.17;;;16.70;99.90;;;;;;5032511;28;20650;-87
2022/07/18 00:22:07;;;;;;;1.30;0.90;;;16.80;99.90;;;;;;5022246;28;20469;-87
2022/07/18 00:24:33;;;;;;;1.52;1.20;;;16.70;99.90;;;;;;5030350;28;20491;-88
2022/07/18 00:26:59;;;;;;;1.85;1.10;;;16.80;99.90;;;;;;5020917;28;20081;-88
2022/07/18 00:29:25;;;;;;;1.27;0.75;;;16.80;99.90;;;;;;5029869;28;20021;-89
2022/07/18 00:31:51;;;;;;;1.65;1.13;;;16.80;99.90;;;;;;5028955;28;20502;-88
2022/07/18 00:34:16;;;;;;;1.92;1.00;;;16.80;99.90;;;;;;5031159;28;20021;-88
2022/07/18 00:36:42;;;;;;;1.10;0.98;;;16.80;99.90;;;;;;5032250;28;20038;-86
2022/07/18 00:39:07;;;;;;;1.13;1.02;;;16.80;99.90;;;;;;5031482;28;20040;-87
2022/07/18 00:41:33;;;;;;;1.95;1.13;;;16.80;99.90;;;;;;5030405;28;20030;-88
2022/07/18 00:43:58;;;;;;;1.58;0.98;;;16.70;99.90;;;;;;5030005;28;20021;-87
2022/07/18 00:46:25;;;;;;;2.22;1.10;;;16.70;99.90;;;;;;5031408;28;20025;-87
2022/07/18 00:48:51;;;;;;;2.05;1.70;;;16.60;99.90;;;;;;5031545;28;20689;-87
2022/07/18 00:51:18;;;;;;;0.90;0.80;;;16.60;99.90;;;;;;5031274;28;20037;-88
2022/07/18 00:53:45;;;;;;;1.40;0.80;;;16.60;99.90;;;;;;5024780;28;20041;-88
2022/07/18 00:56:12;;;;;;;1.48;0.90;;;16.70;99.90;;;;;;5027590;28;20479;-87
2022/07/18 00:58:37;;;;;;;3.25;1.35;;;16.70;99.90;;;;;;5030586;28;20045;-88
2022/07/18 01:03:47;;;;;;;0.93;0.82;;;16.60;99.90;;;;;;5030890;28;20051;-87
2022/07/18 01:06:13;;;;;;;1.17;0.98;;;16.60;99.90;;;;;;5027903;28;20022;-88
2022/07/18 01:08:42;;;;;;;2.17;0.90;;;16.60;99.90;;;;;;5031389;28;20055;-88
2022/07/18 01:11:07;;;;;;;1.65;1.38;;;16.60;99.90;;;;;;5030707;28;20029;-87
2022/07/18 01:13:33;;;;;;;1.00;1.00;;;16.60;99.90;;;;;;5029765;28;20454;-88
2022/07/18 01:15:58;;;;;;;1.27;0.98;;;16.60;99.90;;;;;;5029862;28;20067;-88
2022/07/18 01:18:24;;;;;;;1.35;0.70;;;16.50;99.90;;;;;;5029507;28;20534;-87
2022/07/18 01:20:49;;;;;;;1.67;1.10;;;16.50;99.90;;;;;;5030648;28;20087;-87
2022/07/18 01:23:15;;;;;;;1.48;1.02;;;16.40;99.90;;;;;;5031146;28;20083;-87
2022/07/18 01:25:40;;;;;;;1.55;1.00;;;16.40;99.90;;;;;;5029733;28;20045;-88
2022/07/18 01:28:05;;;;;;;4.32;1.02;;;16.30;99.90;;;;;;5030402;28;20022;-87
2022/07/18 01:30:31;;;;;;;0.70;0.70;;;16.30;99.90;;;;;;5028890;28;20036;-87
2022/07/18 01:32:58;;;;;;;1.02;0.90;;;16.20;99.90;;;;;;5030652;28;20033;-87
2022/07/18 01:35:26;;;;;;;1.00;0.93;;;16.10;99.90;;;;;;5029373;28;20079;-86
2022/07/18 01:37:53;;;;;;;2.40;0.80;;;16.10;99.90;;;;;;5030633;28;20117;-87
2022/07/18 01:40:19;;;;;;;0.90;0.90;;;16.00;99.90;;;;;;5030060;28;20037;-87
2022/07/18 01:42:44;;;;;;;0.80;0.80;;;16.00;99.90;;;;;;5030431;28;20083;-88
2022/07/18 01:45:11;;;;;;;0.80;0.70;;;15.90;99.90;;;;;;5030428;28;20025;-87
2022/07/18 01:47:36;;;;;;;0.98;0.88;;;15.90;99.90;;;;;;5031714;28;20068;-87
2022/07/18 01:50:03;;;;;;;0.68;0.68;;;15.80;99.90;;;;;;5030897;28;20049;-87
2022/07/18 01:52:28;;;;;;;1.35;1.20;;;15.80;99.90;;;;;;5030289;28;20029;-88
2022/07/18 01:54:53;;;;;;;2.40;1.40;;;15.70;99.90;;;;;;5029927;28;20091;-88
2022/07/18 01:57:19;;;;;;;3.78;0.70;;;15.60;99.90;;;;;;5028313;28;20508;-87
2022/07/18 01:59:44;;;;;;;5.85;1.13;;;15.50;99.90;;;;;;5022381;28;20083;-88
2022/07/18 02:02:10;;;;;;;0.80;0.68;;;15.50;99.90;;;;;;5022098;28;20025;-88
2022/07/18 02:07:22;;;;;;;1.15;1.00;;;15.40;99.90;;;;;;5028837;28;20024;-86
2022/07/18 02:09:48;;;;;;;0.60;0.60;;;15.40;99.90;;;;;;5030459;28;20025;-88
2022/07/18 02:12:13;;;;;;;0.55;0.52;;;15.30;99.90;;;;;;5030060;28;20357;-88
2022/07/18 02:14:39;;;;;;;1.67;0.80;;;15.30;99.90;;;;;;5032070;28;20562;-86
2022/07/18 02:17:04;;;;;;;0.88;0.88;;;15.20;99.90;;;;;;5030935;28;20025;-87
2022/07/18 02:19:30;;;;;;;1.80;0.70;;;15.20;99.90;;;;;;5028473;28;20032;-87
2022/07/18 02:21:55;;;;;;;0.82;0.70;;;15.10;99.90;;;;;;5030754;28;20025;-87
2022/07/18 02:24:21;;;;;;;0.82;0.82;;;15.10;99.90;;;;;;5029594;28;20053;-88
2022/07/18 02:26:46;;;;;;;2.03;0.90;;;15.00;99.90;;;;;;5028579;28;20025;-88
2022/07/18 02:29:12;;;;;;;0.60;0.60;;;15.00;99.90;;;;;;5011877;28;20037;-87
2022/07/18 02:31:37;;;;;;;0.75;0.75;;;15.00;99.90;;;;;;5029870;28;20435;-88
2022/07/18 02:34:09;;;;;;;1.95;0.80;;;14.90;99.90;;;;;;5028080;28;20029;-87
2022/07/18 02:36:36;;;;;;;3.72;1.27;;;14.80;99.90;;;;;;5029800;28;20035;-87
2022/07/18 02:39:02;;;;;;;1.60;1.10;;;14.80;99.90;;;;;;5027891;28;20030;-87
2022/07/18 02:41:27;;;;;;;0.63;0.63;;;14.80;99.90;;;;;;5029718;28;20404;-88
2022/07/18 02:43:53;;;;;;;1.20;1.00;;;14.80;99.90;;;;;;5027678;28;20033;-88
2022/07/18 02:46:18;;;;;;;1.20;1.02;;;14.70;99.90;;;;;;5029457;28;20037;-87
2022/07/18 02:48:44;;;;;;;3.53;0.98;;;14.70;99.90;;;;;;5027255;28;20096;-88
2022/07/18 02:51:09;;;;;;;1.95;0.80;;;14.70;99.90;;;;;;5029070;28;20032;-87
2022/07/18 02:53:35;;;;;;;2.55;1.30;;;14.60;99.90;;;;;;5029886;28;20787;-88
2022/07/18 02:56:00;;;;;;;0.90;0.80;;;14.50;99.90;;;;;;5028627;28;20037;-87
2022/07/18 02:58:26;;;;;;;1.60;0.75;;;14.50;99.90;;;;;;5027233;28;20026;-87
2022/07/18 03:00:51;;;;;;;0.80;0.80;;;14.60;99.90;;;;;;5029530;28;20121;-87
2022/07/18 03:03:16;;;;;;;1.38;0.70;;;14.50;99.90;;;;;;5029131;28;20113;-88
2022/07/18 03:05:42;;;;;;;0.77;0.68;;;14.50;99.90;;;;;;5027504;28;20447;-87
2022/07/18 03:08:07;;;;;;;1.60;0.95;;;14.50;99.90;;;;;;5029196;28;20075;-87
2022/07/18 03:10:33;;;;;;;1.23;1.00;;;14.50;99.90;;;;;;5024710;28;20025;-87
2022/07/18 03:12:58;;;;;;;0.63;0.55;;;14.50;99.90;;;;;;5029244;28;20541;-87
2022/07/18 03:15:24;;;;;;;1.13;0.68;;;14.40;99.90;;;;;;5027590;28;20035;-88
2022/07/18 03:17:49;;;;;;;0.82;0.82;;;14.40;99.90;;;;;;5029296;28;20032;-87
2022/07/18 03:20:15;;;;;;;3.63;1.25;;;14.40;99.90;;;;;;5028205;28;20037;-87
2022/07/18 03:22:40;;;;;;;2.53;1.40;;;14.40;99.90;;;;;;5028663;28;20499;-85
2022/07/18 03:25:06;;;;;;;0.82;0.82;;;14.30;99.90;;;;;;5028919;28;20028;-87
2022/07/18 03:27:32;;;;;;;0.93;0.82;;;14.30;99.90;;;;;;5018681;28;20061;-86
2022/07/18 03:29:57;;;;;;;0.70;0.70;;;14.30;99.90;;;;;;5029687;28;20103;-87
2022/07/18 03:32:23;;;;;;;0.77;0.73;;;14.30;99.90;;;;;;5027484;28;20188;-87
2022/07/18 03:34:48;;;;;;;0.80;0.63;;;14.20;99.90;;;;;;5028734;28;20030;-87
2022/07/18 03:37:14;;;;;;;0.80;0.80;;;14.30;99.90;;;;;;5027743;28;20030;-87
2022/07/18 03:39:39;;;;;;;0.95;0.68;;;14.30;99.90;;;;;;5028898;28;20022;-88
2022/07/18 03:42:05;;;;;;;1.10;0.80;;;14.30;99.90;;;;;;5028585;28;20128;-87
2022/07/18 03:44:30;;;;;;;1.85;0.80;;;14.30;99.90;;;;;;5028856;28;20535;-88
2022/07/18 03:46:56;;;;;;;1.10;1.00;;;14.30;99.90;;;;;;5028424;28;20033;-87
2022/07/18 03:49:21;;;;;;;0.95;0.90;;;14.30;99.90;;;;;;5019250;28;20463;-87
2022/07/18 03:51:47;;;;;;;1.25;0.80;;;14.30;99.90;;;;;;5028788;28;20029;-87
2022/07/18 03:54:12;;;;;;;1.10;1.00;;;14.30;99.90;;;;;;5028363;28;20052;-87
2022/07/18 03:56:38;;;;;;;0.63;0.50;;;14.30;99.90;;;;;;5028628;28;20049;-87
2022/07/18 03:59:03;;;;;;;1.33;0.75;;;14.40;99.90;;;;;;5023972;28;20064;-87
2022/07/18 04:01:29;;;;;;;0.98;0.75;;;14.40;99.90;;;;;;5028591;28;20499;-85
2022/07/18 04:03:55;;;;;;;0.90;0.70;;;14.40;99.90;;;;;;5028316;28;20022;-87
2022/07/18 04:06:20;;;;;;;1.63;0.88;;;14.50;99.90;;;;;;5027551;28;20086;-87
2022/07/18 04:08:46;;;;;;;0.60;0.60;;;14.50;99.90;;;;;;5026457;28;20022;-87
2022/07/18 04:11:11;;;;;;;1.70;0.90;;;14.50;99.90;;;;;;5030404;28;20519;-86
2022/07/18 04:13:37;;;;;;;0.85;0.77;;;14.50;99.90;;;;;;5032234;28;20117;-87
2022/07/18 04:16:02;;;;;;;1.00;0.90;;;14.60;99.90;;;;;;5032723;28;20017;-87
2022/07/18 04:18:28;;;;;;;0.75;0.73;;;14.60;99.90;;;;;;5030713;28;20087;-87
2022/07/18 04:20:53;;;;;;;0.80;0.70;;;14.60;99.90;;;;;;5028544;28;20056;-88
2022/07/18 04:23:19;;;;;;;1.45;1.35;;;14.60;99.90;;;;;;5030494;28;20061;-86
2022/07/18 04:25:44;;;;;;;0.93;0.90;;;14.70;99.90;;;;;;5006738;28;20040;-87
2022/07/18 04:28:12;;;;;;;1.10;0.90;;;14.70;99.90;;;;;;5030520;28;20108;-87
2022/07/18 04:30:39;;;;;;;4.32;0.70;;;14.70;99.90;;;;;;5024404;28;20101;-87
2022/07/18 04:33:07;;;;;;;0.80;0.80;;;14.70;99.90;;;;;;5031459;28;20057;-87
2022/07/18 04:35:35;;;;;;;0.85;0.82;;;14.80;99.90;;;;;;5032064;28;20025;-86
2022/07/18 04:38:02;;;;;;;4.78;1.40;;;14.80;99.90;;;;;;5031670;28;20052;-87
2022/07/18 04:40:27;;;;;;;1.85;1.27;;;14.90;99.90;;;;;;5029444;28;20025;-87
2022/07/18 04:42:53;;;;;;;2.45;1.20;;;14.90;99.90;;;;;;5030862;28;20032;-86
2022/07/18 04:45:21;;;;;;;1.90;0.95;;;14.80;99.90;;;;;;5030500;28;20388;-87
2022/07/18 04:47:48;;;;;;;0.85;0.70;;;14.90;99.90;;;;;;5029245;28;20017;-86
2022/07/18 04:50:13;;;;;;;1.20;0.90;;;14.90;99.90;;;;;;5031685;28;20021;-86
2022/07/18 04:52:42;;;;;;;1.33;0.68;;;15.00;99.90;;;;;;5031762;28;20029;-87
2022/07/18 04:55:09;;;;;;;1.05;0.90;;;15.00;99.90;;;;;;5031229;28;20049;-86
2022/07/18 04:57:35;;;;;;;1.42;1.10;;;15.00;99.90;;;;;;5029708;28;20554;-86
2022/07/18 05:00:10;;;;;;;0.98;0.80;;;15.10;99.90;;;;;;5013448;28;20022;-87
2022/07/18 05:02:39;;;;;;;0.70;0.70;;;15.10;99.90;;;;;;5025530;28;20037;-86
2022/07/18 05:05:05;;;;;;;1.13;0.90;;;15.10;99.90;;;;;;5030765;28;20053;-87
2022/07/18 05:07:30;;;;;;;0.88;0.88;;;15.20;99.90;;;;;;5031002;28;20060;-87
2022/07/18 05:09:55;;;;;;;0.88;0.63;;;15.20;99.90;;;;;;5024111;28;20022;-86
2022/07/18 05:12:23;;;;;;;1.75;1.10;;;15.30;99.90;;;;;;5030855;28;20497;-86
2022/07/18 05:14:49;;;;;;;0.80;0.80;;;15.40;99.90;;;;;;5031371;28;20040;-87
2022/07/18 05:17:14;;;;;;;3.58;1.83;;;15.40;99.90;;;;;;5030587;28;20112;-87
2022/07/18 05:19:40;;;;;;;1.20;1.10;;;15.60;99.90;;;;;;5023777;28;20030;-86
2022/07/18 05:22:05;;;;;;;1.17;0.93;;;15.70;99.90;;;;;;5020574;28;20058;-87
2022/07/18 05:24:31;;;;;;;1.20;1.00;;;15.90;99.90;;;;;;5028923;28;20020;-87
2022/07/18 05:26:56;;;;;;;1.58;1.20;;;16.10;99.90;;;;;;5025893;28;20026;-86
2022/07/18 05:29:22;;;;;;;1.40;1.13;;;16.10;99.90;;;;;;5027620;28;20040;-86
2022/07/18 05:31:47;;;;;;;1.40;1.00;;;16.20;99.90;;;;;;5021385;28;20036;-87
2022/07/18 05:34:13;;;;;;;5.10;1.45;;;16.40;99.90;;;;;;5029777;28;20465;-88
2022/07/18 05:36:38;;;;;;;2.55;1.00;;;16.50;99.90;;;;;;5030512;28;20044;-87
2022/07/18 05:39:04;;;;;;;1.73;1.52;;;16.50;99.90;;;;;;5031290;28;20044;-87
2022/07/18 05:41:29;;;;;;;0.85;0.70;;;16.60;99.90;;;;;;5031562;28;20034;-87
2022/07/18 05:43:54;;;;;;;1.20;0.90;;;16.70;99.90;;;;;;5027929;28;20029;-88
2022/07/18 05:46:20;;;;;;;1.83;1.02;;;16.80;99.90;;;;;;5030191;28;20029;-89
2022/07/18 05:48:46;;;;;;;1.25;1.05;;;16.90;99.90;;;;;;5030315;28;20018;-87
2022/07/18 05:51:12;;;;;;;1.02;0.90;;;17.00;99.90;;;;;;5031067;28;20025;-85
2022/07/18 05:53:37;;;;;;;2.45;1.20;;;17.00;99.90;;;;;;5027605;28;20564;-86
2022/07/18 05:56:04;;;;;;;1.02;1.02;;;17.10;99.90;;;;;;5026372;28;20395;-85
2022/07/18 05:58:29;;;;;;;1.48;1.08;;;17.20;99.90;;;;;;5028368;28;20029;-81
2022/07/18 06:00:55;;;;;;;0.82;0.82;;;17.30;99.90;;;;;;5025525;28;20132;-84
2022/07/18 06:03:20;;;;;;;0.90;0.90;;;17.40;98.50;;;;;;5022616;28;20028;-93
2022/07/18 06:05:46;;;;;;;1.38;1.00;;;17.50;97.10;;;;;;5030692;28;20040;-88
2022/07/18 06:08:11;;;;;;;1.52;1.27;;;17.60;97.30;;;;;;5029457;28;20471;-78
2022/07/18 06:10:37;;;;;;;1.48;1.23;;;17.70;97.20;;;;;;5029764;28;20010;-81
2022/07/18 06:13:02;;;;;;;1.20;1.10;;;17.80;96.50;;;;;;5017939;28;20446;-78
2022/07/18 06:15:28;;;;;;;0.90;0.80;;;17.90;96.40;;;;;;5028884;28;20042;-80
2022/07/18 06:17:53;;;;;;;0.85;0.82;;;18.00;94.80;;;;;;5028150;28;20025;-80
2022/07/18 06:20:19;;;;;;;1.20;0.98;;;18.10;93.80;;;;;;5030057;28;20051;-79
2022/07/18 06:22:44;;;;;;;1.27;0.90;;;18.30;93.90;;;;;;5026874;28;20033;-86
2022/07/18 06:25:10;;;;;;;4.93;1.63;;;18.40;94.00;;;;;;5029989;28;20168;-79
2022/07/18 06:27:35;;;;;;;2.88;1.42;;;18.50;93.30;;;;;;5029269;28;20021;-77
2022/07/18 06:30:04;;;;;;;0.88;0.80;;;18.50;92.80;;;;;;5028046;28;20037;-77
2022/07/18 06:32:30;;;;;;;0.93;0.80;;;18.50;93.20;;;;;;5026690;28;20040;-80
2022/07/18 06:34:55;;;;;;;3.10;1.10;;;18.60;92.80;;;;;;5027677;28;20087;-76
2022/07/18 06:37:21;;;;;;;1.38;0.98;;;18.70;92.60;;;;;;5027689;28;20025;-75
2022/07/18 06:39:46;;;;;;;1.13;1.02;;;18.80;91.90;;;;;;5026723;28;20531;-78
2022/07/18 06:42:12;;;;;;;0.88;0.88;;;18.90;91.60;;;;;;5029091;28;20052;-77
2022/07/18 06:44:37;;;;;;;1.85;1.20;;;18.90;92.00;;;;;;5024307;28;20103;-78
2022/07/18 06:47:02;;;;;;;1.67;1.45;;;19.10;91.40;;;;;;5027537;28;20033;-78
2022/07/18 06:49:29;;;;;;;0.88;0.80;;;19.10;91.00;;;;;;5026598;28;20519;-79
2022/07/18 06:51:54;;;;;;;1.63;0.90;;;19.20;91.00;;;;;;5027949;28;20021;-77
2022/07/18 06:54:20;;;;;;;1.40;0.93;;;19.30;90.80;;;;;;5027626;28;20522;-78
2022/07/18 06:56:46;;;;;;;1.10;1.00;;;19.30;90.80;;;;;;5027781;28;20097;-77
2022/07/18 06:59:11;;;;;;;1.30;1.20;;;19.40;91.20;;;;;;5021554;28;20113;-77
2022/07/18 07:01:37;;;;;;;0.73;0.73;;;19.50;88.50;;;;;;5025075;28;20040;-76
2022/07/18 07:04:02;;;;;;;0.80;0.80;;;19.50;89.70;;;;;;5024924;28;20028;-76
2022/07/18 07:06:28;;;;;;;1.17;0.73;;;19.60;89.20;;;;;;5027168;28;20060;-76
2022/07/18 07:08:53;;;;;;;0.65;0.65;;;19.60;88.10;;;;;;5025674;28;20057;-75
2022/07/18 07:11:21;;;;;;;0.85;0.75;;;19.70;88.30;;;;;;5024606;28;20029;-76
2022/07/18 07:13:47;;;;;;;0.80;0.73;;;19.70;87.00;;;;;;5024738;28;20526;-73
2022/07/18 07:16:12;;;;;;;1.20;1.08;;;19.80;85.30;;;;;;5025058;28;20030;-74
2022/07/18 07:18:38;;;;;;;2.05;0.82;;;19.90;85.10;;;;;;5024574;28;20132;-73
2022/07/18 07:21:05;;;;;;;0.35;0.35;;;19.90;84.70;;;;;;5024818;28;20037;-73
2022/07/18 07:23:30;;;;;;;0.60;0.60;;;19.90;81.80;;;;;;5021342;28;20029;-73
2022/07/18 07:25:56;;;;;;;0.77;0.70;;;20.00;81.90;;;;;;5024545;28;20032;-74
2022/07/18 07:28:21;;;;;;;1.15;1.10;;;20.00;80.40;;;;;;5022780;28;20021;-78
2022/07/18 07:30:47;;;;;;;0.63;0.63;;;20.10;79.00;;;;;;5024249;28;20029;-72
2022/07/18 07:33:12;;;;;;;1.35;0.82;;;20.20;79.80;;;;;;5026798;28;20488;-72
2022/07/18 07:35:38;;;;;;;2.58;0.82;;;20.20;78.80;;;;;;5026175;28;20026;-72
2022/07/18 07:38:03;;;;;;;5.90;0.60;;;20.20;77.50;;;;;;5027528;28;20041;-72
2022/07/18 07:40:29;;;;;;;1.15;0.70;;;20.20;79.40;;;;;;5027696;28;20021;-71
2022/07/18 07:43:06;;;;;;;1.95;0.60;;;20.40;77.40;;;;;;5031665;28;20025;-72
2022/07/18 07:45:32;;;;;;;0.40;0.40;;;20.40;78.70;;;;;;5027915;28;20404;-70
2022/07/18 07:47:57;;;;;;;1.40;1.00;;;20.50;74.90;;;;;;5032213;28;20032;-73
2022/07/18 07:50:23;;;;;;;2.38;0.80;;;20.60;74.30;;;;;;5030516;28;20033;-72
2022/07/18 07:52:48;;;;;;;0.63;0.63;;;20.60;74.40;;;;;;5030222;28;20553;-73
2022/07/18 07:55:14;;;;;;;1.27;0.90;;;20.70;74.80;;;;;;5029895;28;20396;-75
2022/07/18 07:57:39;;;;;;;0.70;0.70;;;20.80;75.10;;;;;;5030928;28;20032;-75
2022/07/18 08:00:08;;;;;;;0.60;0.60;;;21.00;73.30;;;;;;5029781;28;20104;-72
2022/07/18 08:02:33;;;;;;;0.68;0.60;;;21.00;72.50;;;;;;5026855;28;20033;-76
2022/07/18 08:04:59;;;;;;;0.70;0.70;;;21.10;73.30;;;;;;5026907;28;20753;-75
2022/07/18 08:07:25;;;;;;;1.17;0.60;;;21.20;73.30;;;;;;5028129;28;20103;-74
2022/07/18 08:09:50;;;;;;;2.05;1.38;;;21.30;73.80;;;;;;5030704;28;20029;-73
2022/07/18 08:12:16;;;;;;;0.50;0.50;;;21.50;69.90;;;;;;5024809;28;20025;-74
2022/07/18 08:14:42;;;;;;;0.55;0.55;;;21.60;69.10;;;;;;5027584;28;20025;-73
2022/07/18 08:17:07;;;;;;;1.65;0.95;;;21.80;68.90;;;;;;5030138;28;20492;-73
2022/07/18 08:19:33;;;;;;;1.20;0.80;;;21.90;69.10;;;;;;5030460;28;20396;-76
2022/07/18 08:21:58;;;;;;;1.48;0.70;;;22.00;68.10;;;;;;5027750;28;20033;-75
2022/07/18 08:24:24;;;;;;;0.73;0.70;;;22.20;67.90;;;;;;5030455;28;20103;-74
2022/07/18 08:26:49;;;;;;;2.05;1.00;;;22.30;67.40;;;;;;5031259;28;20067;-74
2022/07/18 08:29:15;;;;;;;0.85;0.55;;;22.40;65.00;;;;;;5029429;28;20030;-73
2022/07/18 08:31:40;;;;;;;1.02;0.90;;;22.40;65.60;;;;;;5029919;28;20027;-75
2022/07/18 08:34:06;;;;;;;1.58;1.13;;;22.40;65.30;;;;;;5022925;28;20435;-74
2022/07/18 08:36:31;;;;;;;0.77;0.70;;;22.30;65.60;;;;;;5030712;28;20060;-75
2022/07/18 08:38:57;;;;;;;3.92;1.05;;;22.30;65.90;;;;;;5030767;28;20407;-76
2022/07/18 08:41:23;;;;;;;0.93;0.80;;;22.30;65.00;;;;;;5029273;28;20025;-74
2022/07/18 08:43:50;;;;;;;0.93;0.80;;;22.30;64.40;;;;;;5027767;28;20026;-74
2022/07/18 08:46:20;;;;;;;1.23;0.70;;;22.30;63.90;;;;;;5030572;28;20035;-75
2022/07/18 08:48:46;;;;;;;1.92;0.80;;;22.40;66.10;;;;;;5031216;28;20548;-75
2022/07/18 08:51:12;;;;;;;1.67;0.93;;;22.50;66.60;;;;;;5029602;28;20022;-74
2022/07/18 08:53:37;;;;;;;1.00;0.85;;;22.50;64.60;;;;;;5028971;28;20116;-74
2022/07/18 08:56:04;;;;;;;2.72;1.42;;;22.60;64.40;;;;;;5030628;28;20436;-74
2022/07/18 08:58:29;;;;;;;1.48;1.13;;;22.70;65.30;;;;;;5028477;28;20112;-75
2022/07/18 09:00:57;;;;;;;1.40;0.75;;;22.70;65.00;;;;;;5029686;28;20104;-75
2022/07/18 09:03:23;;;;;;;1.15;1.00;;;22.80;65.30;;;;;;5022393;28;20049;-75
2022/07/18 09:06:04;;;;;;;1.73;1.20;;;22.80;67.80;;;;;;5026691;28;20037;-74
2022/07/18 09:08:30;;;;;;;1.67;0.97;;;23.00;67.20;;;;;;5029538;28;20149;-74
2022/07/18 09:10:57;;;;;;;1.02;0.82;;;23.00;65.80;;;;;;5025173;28;20017;-75
2022/07/18 09:13:29;;;;;;;1.30;0.90;;;23.00;65.40;;;;;;5029200;28;20033;-75
2022/07/18 09:16:09;;;;;;;2.35;1.40;;;23.10;63.70;;;;;;5029713;28;20060;-75
2022/07/18 09:18:47;;;;;;;3.80;1.38;;;23.20;64.80;;;;;;5025870;28;20709;-75
2022/07/18 09:21:21;;;;;;;4.30;1.80;;;23.30;63.30;;;;;;5029068;28;20075;-75
2022/07/18 09:23:49;;;;;;;1.83;1.13;;;23.50;65.70;;;;;;5023419;28;20563;-74
2022/07/18 09:26:37;;;;;;;3.67;1.40;;;23.70;60.40;;;;;;5027126;28;20034;-76
2022/07/18 09:29:03;;;;;;;4.63;1.30;;;23.80;60.00;;;;;;5028935;28;20036;-75
2022/07/18 09:31:30;;;;;;;3.17;1.75;;;23.90;61.00;;;;;;5027803;28;20034;-74
2022/07/18 09:34:00;;;;;;;6.47;1.30;;;24.10;58.60;;;;;;5021770;28;20053;-75
2022/07/18 09:36:26;;;;;;;2.50;1.33;;;24.20;57.70;;;;;;5027597;28;20026;-74
2022/07/18 09:38:52;;;;;;;2.15;1.42;;;24.30;59.30;;;;;;5026832;28;20026;-74
2022/07/18 09:41:27;;;;;;;1.73;1.10;;;24.20;57.50;;;;;;5028756;28;20122;-76
2022/07/18 09:43:53;;;;;;;2.97;1.58;;;24.10;56.90;;;;;;5021959;28;20014;-76
2022/07/18 09:46:19;;;;;;;3.03;1.25;;;24.10;57.80;;;;;;5026411;28;20032;-76
2022/07/18 09:48:44;;;;;;;1.75;1.30;;;24.10;57.00;;;;;;5027899;28;20022;-75
2022/07/18 09:51:10;;;;;;;2.30;1.65;;;24.20;58.00;;;;;;5028626;28;20476;-74
2022/07/18 09:53:46;;;;;;;2.00;1.25;;;24.20;57.50;;;;;;5023939;28;20152;-75
2022/07/18 09:56:21;;;;;;;3.08;1.25;;;24.30;59.20;;;;;;5025324;28;20049;-74
2022/07/18 09:58:52;;;;;;;2.63;1.20;;;24.40;59.00;;;;;;5027803;28;20116;-73
2022/07/18 10:01:18;;;;;;;3.17;1.63;;;24.50;59.30;;;;;;5028193;28;20033;-74
2022/07/18 10:03:43;;;;;;;3.75;1.52;;;24.60;58.00;;;;;;5024080;28;20037;-78
2022/07/18 10:06:09;;;;;;;3.20;1.65;;;24.60;57.90;;;;;;5024044;28;20029;-72
2022/07/18 10:08:35;;;;;;;5.75;1.50;;;24.70;57.00;;;;;;5027359;28;20021;-74
2022/07/18 10:11:03;;;;;;;2.72;1.73;;;24.80;57.00;;;;;;5023401;28;20114;-74
2022/07/18 10:13:33;;;;;;;2.67;1.40;;;24.90;56.40;;;;;;5027573;28;20124;-72
2022/07/18 10:15:58;;;;;;;1.45;1.10;;;25.00;56.30;;;;;;5026126;28;20048;-72
2022/07/18 10:18:26;;;;;;;3.05;1.77;;;25.10;56.70;;;;;;5019078;28;20034;-74
2022/07/18 10:20:59;;;;;;;61.70;10.38;;;25.10;55.70;;;;;;5021697;28;20107;-75
2022/07/18 10:23:39;;;;;;;1.55;1.00;;;25.10;56.10;;;;;;5024552;28;20048;-74
2022/07/18 10:26:21;;;;;;;2.63;1.45;;;25.40;56.20;;;;;;5024355;28;20029;-75
2022/07/18 10:28:56;;;;;;;3.13;1.50;;;25.60;58.10;;;;;;5022361;28;20117;-75
2022/07/18 10:31:24;;;;;;;1.70;1.10;;;25.80;58.30;;;;;;5026997;28;20072;-74
2022/07/18 10:33:50;;;;;;;1.35;1.10;;;25.90;54.80;;;;;;5025336;28;20057;-75
2022/07/18 10:36:17;;;;;;;1.55;1.20;;;25.80;53.30;;;;;;5028529;28;20476;-74
2022/07/18 10:39:03;;;;;;;2.72;1.20;;;26.00;53.20;;;;;;5020832;28;20396;-75
2022/07/18 10:41:28;;;;;;;1.75;1.40;;;26.00;56.00;;;;;;5023883;28;20034;-76
2022/07/18 10:43:54;;;;;;;2.03;1.20;;;25.90;52.80;;;;;;5026531;28;20097;-75
2022/07/18 10:46:46;;;;;;;1.60;1.33;;;25.70;54.10;;;;;;5025435;28;20028;-77
2022/07/18 10:49:11;;;;;;;;;;;25.80;56.90;;;;;;5023121;28;20048;-76
2022/07/18 10:51:37;;;;;;;1.65;1.15;;;26.00;55.90;;;;;;5018840;28;19956;-77
2022/07/18 10:54:05;;;;;;;2.72;1.52;;;26.00;52.00;;;;;;5021262;28;20083;-75
2022/07/18 10:56:37;;;;;;;1.27;1.10;;;25.90;55.20;;;;;;5021620;28;20116;-74
2022/07/18 10:59:19;;;;;;;2.65;1.13;;;25.80;53.30;;;;;;5026335;28;20509;-75
2022/07/18 11:01:51;;;;;;;1.70;1.20;;;26.10;55.90;;;;;;5025679;28;20103;-77
2022/07/18 11:04:33;;;;;;;1.25;0.90;;;26.30;54.40;;;;;;5025932;28;20174;-76
2022/07/18 11:07:15;;;;;;;1.92;1.02;;;26.40;54.10;;;;;;5025410;28;20435;-77
2022/07/18 11:10:31;;;;;;;2.05;1.30;;;26.40;54.90;;;;;;5026991;28;20119;-72
2022/07/18 11:13:25;;;;;;;1.23;0.95;;;26.40;55.70;;;;;;5027062;28;20476;-75
2022/07/18 11:16:12;;;;;;;2.30;1.25;;;26.40;54.40;;;;;;5021011;28;20549;-75
2022/07/18 11:18:40;;;;;;;1.45;1.27;;;27.00;53.70;;;;;;5029545;28;20055;-74
2022/07/18 11:21:27;;;;;;;2.70;1.17;;;27.40;52.00;;;;;;5030876;28;20148;-74
2022/07/18 11:24:11;;;;;;;1.83;1.00;;;27.50;55.80;;;;;;5025205;28;20029;-79
2022/07/18 11:26:38;;;;;;;3.45;1.27;;;27.60;54.10;;;;;;5031331;28;20016;-81
2022/07/18 11:29:06;;;;;;;2.35;1.17;;;27.80;52.80;;;;;;5024973;28;20048;-79
2022/07/18 11:31:46;;;;;;;2.20;1.27;;;28.00;50.80;;;;;;5023511;28;20036;-79
2022/07/18 11:34:11;;;;;;;2.70;1.15;;;28.20;50.10;;;;;;5024374;28;20104;-79
2022/07/18 11:36:39;;;;;;;3.00;1.30;;;28.20;47.30;;;;;;5027852;28;20104;-83
2022/07/18 11:39:04;;;;;;;1.15;1.05;;;28.20;48.30;;;;;;5020956;28;20550;-83
2022/07/18 11:41:30;;;;;;;2.67;1.45;;;28.40;47.60;;;;;;5026875;28;20013;-83
2022/07/18 11:43:56;;;;;;;1.17;1.00;;;28.40;47.70;;;;;;5027454;28;20112;-82
2022/07/18 11:46:31;;;;;;;1.35;1.25;;;28.50;47.10;;;;;;5021743;28;20030;-84
2022/07/18 11:49:06;;;;;;;2.03;1.20;;;28.90;47.90;;;;;;5028772;28;20071;-83
2022/07/18 11:51:43;;;;;;;2.33;1.08;;;29.20;48.80;;;;;;5023806;28;20120;-80
2022/07/18 11:54:09;;;;;;;2.70;1.00;;;29.10;49.00;;;;;;5026329;28;20026;-85
2022/07/18 11:56:46;;;;;;;1.85;0.88;;;29.50;48.00;;;;;;5022669;28;20485;-83
2022/07/18 11:59:11;;;;;;;2.53;1.60;;;29.80;45.40;;;;;;5024121;28;20524;-82
2022/07/18 12:01:37;;;;;;;1.50;1.02;;;30.20;45.80;;;;;;5021558;28;20128;-82
2022/07/18 12:04:03;;;;;;;2.22;1.10;;;30.40;43.90;;;;;;5026190;28;20472;-83
2022/07/18 12:06:28;;;;;;;1.75;1.25;;;30.70;46.60;;;;;;5029901;28;20026;-86
2022/07/18 12:08:56;;;;;;;1.85;1.25;;;30.70;45.00;;;;;;5031592;28;20017;-86
2022/07/18 12:11:38;;;;;;;1.20;1.08;;;30.50;45.40;;;;;;5028762;28;20096;-86
2022/07/18 12:14:06;;;;;;;1.10;1.00;;;31.00;43.90;;;;;;5023214;28;20032;-86
2022/07/18 12:16:42;;;;;;;1.33;1.10;;;31.20;45.90;;;;;;5092114;23;20052;-81
2022/07/18 12:19:18;;;;;;;2.63;1.30;;;31.80;45.90;;;;;;5040392;28;20033;-81
2022/07/18 12:21:55;;;;;;;1.40;1.13;;;32.30;44.20;;;;;;5019552;28;20091;-80
2022/07/18 12:24:35;;;;;;;1.20;1.10;;;32.30;42.80;;;;;;5027926;28;20479;-82
2022/07/18 12:27:21;;;;;;;1.80;1.30;;;31.30;41.50;;;;;;5036550;28;20029;-80
2022/07/18 12:30:03;;;;;;;1.08;0.90;;;30.80;44.40;;;;;;5038758;28;20037;-81
2022/07/18 12:32:30;;;;;;;2.42;1.20;;;30.50;43.20;;;;;;5020617;28;20099;-80
2022/07/18 12:35:04;;;;;;;1.30;1.20;;;30.20;43.60;;;;;;5032193;28;20032;-82
2022/07/18 12:37:30;;;;;;;1.10;0.80;;;29.80;43.80;;;;;;5032649;28;20025;-79
2022/07/18 12:40:33;;;;;;;1.30;0.90;;;29.50;44.00;;;;;;5030905;28;20103;-78
2022/07/18 12:43:05;;;;;;;2.35;1.15;;;29.40;43.50;;;;;;4987402;28;20040;-83
2022/07/18 12:45:54;;;;;;;3.67;0.95;;;29.50;44.50;;;;;;5024362;28;20025;-84
2022/07/18 12:48:20;;;;;;;1.23;1.08;;;29.70;45.60;;;;;;5000648;28;20070;-81
2022/07/18 12:50:54;;;;;;;2.60;1.30;;;29.80;45.00;;;;;;5028279;28;20475;-84
2022/07/18 12:53:19;;;;;;;1.83;1.08;;;29.80;45.60;;;;;;5029174;28;20516;-83
2022/07/18 12:55:45;;;;;;;1.55;0.90;;;30.10;43.80;;;;;;5011825;28;20030;-82